createdAt,value
2023-02-19T00:00:33.437Z,72.93
2023-02-19T00:03:06.762Z,73.77
2023-02-19T00:05:38.835Z,75.67
2023-02-19T00:08:09.489Z,78.25
2023-02-19T00:10:39.990Z,80.52
2023-02-19T00:13:10.890Z,81.64
2023-02-19T00:15:41.408Z,85.05
2023-02-19T00:18:14.633Z,87.58
2023-02-19T00:20:45.196Z,87.59
2023-02-19T00:23:15.996Z,87.08
2023-02-19T00:25:46.452Z,86.49
2023-02-19T00:28:17.060Z,85.08
2023-02-19T00:30:47.560Z,84.19
2023-02-19T00:33:20.957Z,83.50
2023-02-19T00:35:51.569Z,82.61
2023-02-19T00:38:22.250Z,81.85
2023-02-19T00:40:52.722Z,83.89
2023-02-19T00:43:24.205Z,83.72
2023-02-19T00:45:54.754Z,83.51
2023-02-19T00:48:29.019Z,82.68
2023-02-19T00:50:59.479Z,83.04
2023-02-19T00:53:30.126Z,83.47
2023-02-19T00:56:00.648Z,82.67
2023-02-19T00:58:31.458Z,82.97
2023-02-19T01:01:02.652Z,88.75
2023-02-19T01:03:36.015Z,89.30
2023-02-19T01:06:07.987Z,86.17
2023-02-19T01:08:38.838Z,85.93
2023-02-19T01:11:10.928Z,86.30
2023-02-19T01:13:41.863Z,87.63
2023-02-19T01:16:15.889Z,89.26
2023-02-19T01:18:50.857Z,89.03
2023-02-19T01:21:22.888Z,91.69
2023-02-19T01:23:54.577Z,91.94
2023-02-19T01:26:26.826Z,88.78
2023-02-19T01:28:57.554Z,87.41
2023-02-19T01:31:29.227Z,88.48
2023-02-19T01:34:04.747Z,86.48
2023-02-19T01:36:38.025Z,87.77
2023-02-19T01:39:11.538Z,87.46
2023-02-19T01:41:43.910Z,89.45
2023-02-19T01:44:44.059Z,88.66
2023-02-19T01:47:14.850Z,88.42
2023-02-19T01:49:52.525Z,89.03
2023-02-19T01:52:28.835Z,88.97
2023-02-19T01:55:01.083Z,90.80
2023-02-19T01:57:38.115Z,91.64
2023-02-19T02:00:13.586Z,93.07
2023-02-19T02:02:46.532Z,92.32
2023-02-19T02:05:28.117Z,89.00
2023-02-19T02:08:11.150Z,88.81
2023-02-19T02:10:42.247Z,89.40
2023-02-19T02:13:13.280Z,92.49
2023-02-19T02:16:16.398Z,91.58
2023-02-19T02:19:01.623Z,90.55
2023-02-19T02:21:56.544Z,89.25
2023-02-19T02:24:53.193Z,88.13
2023-02-19T02:27:38.093Z,87.17
2023-02-19T02:30:22.564Z,87.38
2023-02-19T02:32:59.319Z,86.91
2023-02-19T02:35:33.863Z,87.83
2023-02-19T02:38:08.207Z,87.06
2023-02-19T02:40:39.709Z,85.70
2023-02-19T02:43:10.417Z,85.04
2023-02-19T02:45:44.328Z,83.63
2023-02-19T02:48:32.882Z,83.87
2023-02-19T02:51:09.191Z,88.91
2023-02-19T02:54:03.200Z,89.58
2023-02-19T02:56:35.150Z,86.51
2023-02-19T02:59:09.776Z,87.42
2023-02-19T03:01:58.606Z,88.27
2023-02-19T03:04:36.410Z,92.45
2023-02-19T03:07:11.029Z,91.53
2023-02-19T03:09:45.727Z,92.06
2023-02-19T03:12:37.802Z,89.94
2023-02-19T03:15:26.541Z,87.45
2023-02-19T03:18:16.788Z,88.82
2023-02-19T03:20:51.897Z,89.37
2023-02-19T03:23:47.321Z,87.52
2023-02-19T03:26:18.033Z,85.88
2023-02-19T03:29:08.297Z,85.27
2023-02-19T03:31:43.046Z,85.22
2023-02-19T03:34:22.019Z,89.16
2023-02-19T03:37:00.044Z,86.51
2023-02-19T03:39:31.220Z,87.71
2023-02-19T03:42:08.969Z,88.41
2023-02-19T03:44:45.202Z,86.16
2023-02-19T03:47:21.028Z,84.72
2023-02-19T03:49:59.902Z,85.37
2023-02-19T03:52:41.238Z,86.18
2023-02-19T03:55:17.122Z,89.59
2023-02-19T03:57:54.886Z,88.60
2023-02-19T04:00:31.080Z,86.09
2023-02-19T04:03:07.028Z,85.78
2023-02-19T04:05:44.727Z,88.56
2023-02-19T04:08:19.043Z,87.65
2023-02-19T04:10:57.777Z,85.23
2023-02-19T04:13:35.047Z,84.69
2023-02-19T04:16:10.255Z,85.50
2023-02-19T04:18:44.068Z,87.86
2023-02-19T04:21:18.805Z,86.70
2023-02-19T04:23:50.350Z,84.83
2023-02-19T04:26:23.338Z,84.37
2023-02-19T04:28:53.995Z,85.35
2023-02-19T04:31:25.318Z,88.25
2023-02-19T04:33:56.392Z,86.69
2023-02-19T04:36:29.556Z,84.43
2023-02-19T04:39:00.139Z,84.51
2023-02-19T04:41:30.627Z,86.92
2023-02-19T04:44:01.311Z,86.84
2023-02-19T04:46:31.900Z,83.43
2023-02-19T04:49:02.501Z,82.00
2023-02-19T04:51:35.753Z,82.37
2023-02-19T04:54:06.558Z,84.94
2023-02-19T04:56:37.093Z,84.53
2023-02-19T04:59:07.797Z,81.71
2023-02-19T05:01:39.444Z,80.70
2023-02-19T05:04:10.019Z,81.11
2023-02-19T05:06:43.162Z,83.36
2023-02-19T05:09:13.818Z,82.15
2023-02-19T05:11:44.392Z,80.62
2023-02-19T05:14:15.037Z,80.03
2023-02-19T05:16:45.612Z,83.23
2023-02-19T05:19:16.298Z,81.49
2023-02-19T05:21:49.744Z,79.46
2023-02-19T05:24:20.499Z,78.87
2023-02-19T05:26:51.128Z,79.35
2023-02-19T05:29:21.824Z,82.65
2023-02-19T05:31:52.444Z,81.62
2023-02-19T05:34:23.177Z,80.85
2023-02-19T05:36:56.404Z,79.93
2023-02-19T05:39:26.927Z,77.97
2023-02-19T05:41:57.485Z,76.87
2023-02-19T05:44:28.381Z,77.92
2023-02-19T05:46:58.942Z,78.82
2023-02-19T05:49:29.794Z,81.13
2023-02-19T05:52:02.900Z,78.89
2023-02-19T05:54:33.799Z,77.20
2023-02-19T05:57:04.535Z,80.67
2023-02-19T05:59:35.231Z,78.51
2023-02-19T06:02:05.750Z,76.87
2023-02-19T06:04:36.393Z,76.29
2023-02-19T06:07:09.465Z,76.96
2023-02-19T06:09:40.041Z,79.05
2023-02-19T06:12:11.126Z,77.64
2023-02-19T06:14:41.731Z,78.33
2023-02-19T06:17:12.189Z,76.00
2023-02-19T06:19:42.868Z,74.50
2023-02-19T06:22:17.805Z,74.58
2023-02-19T06:24:48.413Z,76.72
2023-02-19T06:27:19.082Z,78.31
2023-02-19T06:29:49.667Z,76.87
2023-02-19T06:32:20.285Z,79.55
2023-02-19T06:34:50.897Z,77.97
2023-02-19T06:37:24.142Z,76.66
2023-02-19T06:39:54.799Z,75.59
2023-02-19T06:42:25.410Z,75.57
2023-02-19T06:44:56.173Z,78.29
2023-02-19T06:47:26.733Z,76.36
2023-02-19T06:49:57.319Z,75.67
2023-02-19T06:52:30.513Z,72.67
2023-02-19T06:55:01.050Z,71.02
2023-02-19T06:57:33.856Z,72.63
2023-02-19T07:00:05.379Z,71.99
2023-02-19T07:02:35.981Z,69.25
2023-02-19T07:05:06.498Z,70.68
2023-02-19T07:07:39.700Z,69.32
2023-02-19T07:10:10.777Z,68.46
2023-02-19T07:12:41.413Z,67.88
2023-02-19T07:15:13.167Z,66.28
2023-02-19T07:17:43.644Z,66.17
2023-02-19T07:20:15.154Z,64.58
2023-02-19T07:22:48.409Z,64.00
2023-02-19T07:25:19.333Z,65.85
2023-02-19T07:27:49.865Z,65.40
2023-02-19T07:30:20.841Z,64.68
2023-02-19T07:32:51.431Z,65.63
2023-02-19T07:35:22.110Z,63.81
2023-02-19T07:37:55.281Z,64.50
2023-02-19T07:40:25.923Z,63.16
2023-02-19T07:42:56.527Z,61.49
2023-02-19T07:45:27.110Z,60.81
2023-02-19T07:47:57.633Z,60.03
2023-02-19T07:50:28.203Z,58.99
2023-02-19T07:53:01.400Z,57.65
2023-02-19T07:55:31.979Z,57.99
2023-02-19T07:58:05.839Z,55.52
2023-02-19T08:00:36.879Z,55.91
2023-02-19T08:03:04.959Z,50.51
2023-02-19T08:05:37.243Z,51.59
2023-02-19T08:08:12.477Z,47.45
2023-02-19T08:10:55.272Z,48.58
2023-02-19T08:13:26.008Z,44.68
2023-02-19T08:16:10.960Z,45.99
2023-02-19T08:18:47.681Z,42.68
2023-02-19T08:21:20.713Z,45.46
2023-02-19T08:23:53.850Z,41.77
2023-02-19T08:26:24.523Z,43.20
2023-02-19T08:28:54.946Z,39.63
2023-02-19T08:31:25.555Z,42.40
2023-02-19T08:33:56.276Z,38.60
2023-02-19T08:36:26.777Z,40.92
2023-02-19T08:38:59.897Z,38.45
2023-02-19T08:41:30.373Z,40.00
2023-02-19T08:44:00.938Z,39.21
2023-02-19T08:46:33.493Z,39.78
2023-02-19T08:49:05.605Z,39.25
2023-02-19T08:51:36.206Z,38.72
2023-02-19T08:54:09.465Z,39.21
2023-02-19T08:56:40.037Z,38.95
2023-02-19T08:59:10.629Z,39.81
2023-02-19T09:01:41.263Z,38.48
2023-02-19T09:04:15.301Z,39.18
2023-02-19T09:06:45.952Z,38.63
2023-02-19T09:09:19.133Z,38.77
2023-02-19T09:11:49.634Z,39.02
2023-02-19T09:14:20.329Z,38.87
2023-02-19T09:16:50.908Z,38.24
2023-02-19T09:19:21.581Z,39.47
2023-02-19T09:21:52.189Z,38.23
2023-02-19T09:24:25.900Z,37.76
2023-02-19T09:26:57.933Z,38.48
2023-02-19T09:29:30.277Z,38.79
2023-02-19T09:32:01.553Z,38.63
2023-02-19T09:34:32.629Z,38.69
2023-02-19T09:37:03.283Z,38.15
2023-02-19T09:39:36.707Z,38.37
2023-02-19T09:42:16.000Z,37.11
2023-02-19T09:44:48.675Z,38.55
2023-02-19T09:47:22.394Z,37.99
2023-02-19T09:49:55.580Z,37.83
2023-02-19T09:52:34.422Z,37.35
2023-02-19T09:55:17.466Z,37.55
2023-02-19T09:57:48.987Z,36.80
2023-02-19T10:00:25.645Z,37.45
2023-02-19T10:02:58.430Z,36.91
2023-02-19T10:05:29.979Z,37.78
2023-02-19T10:08:01.805Z,36.41
2023-02-19T10:10:38.583Z,36.87
2023-02-19T10:13:22.587Z,36.18
2023-02-19T10:15:55.210Z,37.08
2023-02-19T10:18:28.526Z,36.95
2023-02-19T10:21:00.550Z,37.26
2023-02-19T10:23:31.469Z,38.07
2023-02-19T10:26:04.755Z,37.55
2023-02-19T10:28:37.575Z,36.87
2023-02-19T10:31:20.836Z,37.27
2023-02-19T10:33:53.820Z,37.07
2023-02-19T10:36:32.277Z,37.97
2023-02-19T10:39:04.769Z,37.63
2023-02-19T10:41:44.420Z,37.61
2023-02-19T10:44:21.139Z,36.16
2023-02-19T10:46:55.464Z,35.73
2023-02-19T10:49:30.715Z,36.60
2023-02-19T10:52:05.710Z,36.23
2023-02-19T10:54:36.972Z,35.49
2023-02-19T10:57:30.551Z,33.72
2023-02-19T11:00:03.836Z,34.97
2023-02-19T11:02:35.766Z,34.58
2023-02-19T11:05:12.255Z,35.91
2023-02-19T11:07:49.273Z,35.76
2023-02-19T11:10:31.254Z,34.73
2023-02-19T11:13:06.749Z,35.68
2023-02-19T11:15:39.228Z,35.91
2023-02-19T11:18:23.809Z,35.57
2023-02-19T11:20:57.000Z,36.04
2023-02-19T11:23:31.264Z,36.16
2023-02-19T11:26:04.646Z,36.17
2023-02-19T11:28:40.420Z,34.04
2023-02-19T11:31:27.767Z,35.58
2023-02-19T11:34:01.200Z,35.69
2023-02-19T11:36:34.521Z,35.89
2023-02-19T11:39:22.678Z,35.82
2023-02-19T11:42:15.894Z,35.10
2023-02-19T11:45:03.389Z,34.76
2023-02-19T11:48:01.579Z,35.10
2023-02-19T11:50:42.932Z,35.87
2023-02-19T11:53:24.534Z,35.55
2023-02-19T11:56:13.628Z,35.87
2023-02-19T11:59:02.938Z,35.13
2023-02-19T12:01:50.999Z,36.09
2023-02-19T12:04:57.802Z,34.74
2023-02-19T12:07:53.101Z,35.42
2023-02-19T12:10:31.572Z,35.66
2023-02-19T12:13:10.690Z,35.04
2023-02-19T12:16:05.746Z,35.22
2023-02-19T12:19:02.183Z,35.74
2023-02-19T12:21:46.331Z,35.95
2023-02-19T12:24:37.278Z,35.29
2023-02-19T12:27:23.551Z,35.19
2023-02-19T12:30:12.605Z,35.39
2023-02-19T12:32:56.671Z,33.58
2023-02-19T12:35:52.029Z,33.31
2023-02-19T12:38:33.763Z,35.24
2023-02-19T12:41:27.993Z,34.43
2023-02-19T12:44:02.595Z,33.77
2023-02-19T12:46:39.833Z,34.21
2023-02-19T12:49:16.018Z,32.69
2023-02-19T12:51:55.414Z,33.20
2023-02-19T12:54:31.152Z,33.89
2023-02-19T12:57:05.927Z,34.04
2023-02-19T12:59:42.488Z,34.38
2023-02-19T13:02:20.989Z,34.25
2023-02-19T13:04:57.911Z,34.53
2023-02-19T13:07:37.169Z,34.39
2023-02-19T13:10:27.623Z,34.07
2023-02-19T13:13:01.659Z,34.81
2023-02-19T13:15:37.903Z,35.33
2023-02-19T13:18:16.773Z,35.24
2023-02-19T13:20:51.877Z,35.81
2023-02-19T13:23:42.072Z,35.64
2023-02-19T13:26:32.509Z,35.94
2023-02-19T13:29:17.345Z,36.04
2023-02-19T13:32:04.758Z,35.87
2023-02-19T13:34:54.998Z,37.62
2023-02-19T13:37:26.955Z,39.38
2023-02-19T13:40:03.547Z,40.39
2023-02-19T13:42:37.046Z,40.90
2023-02-19T13:45:10.156Z,41.38
2023-02-19T13:48:03.329Z,41.86
2023-02-19T13:50:35.821Z,42.12
2023-02-19T13:53:41.387Z,41.85
2023-02-19T13:56:42.696Z,42.56
2023-02-19T13:59:36.470Z,42.77
2023-02-19T14:02:18.797Z,42.87
2023-02-19T14:04:53.478Z,42.99
2023-02-19T14:07:55.488Z,42.88
2023-02-19T14:10:57.949Z,42.96
2023-02-19T14:13:58.369Z,42.45
2023-02-19T14:16:54.650Z,42.22
2023-02-19T14:20:01.159Z,42.31
2023-02-19T14:22:55.685Z,42.59
2023-02-19T14:25:52.946Z,41.79
2023-02-19T14:28:30.787Z,40.84
2023-02-19T14:31:03.937Z,41.29
2023-02-19T14:33:40.365Z,41.76
2023-02-19T14:36:22.211Z,40.86
2023-02-19T14:38:56.409Z,40.93
2023-02-19T14:41:28.960Z,41.59
2023-02-19T14:44:02.313Z,41.59
2023-02-19T14:46:35.898Z,41.96
2023-02-19T14:49:18.412Z,42.07
2023-02-19T14:51:54.298Z,42.18
2023-02-19T14:54:37.876Z,42.88
2023-02-19T14:57:18.560Z,43.80
2023-02-19T14:59:58.607Z,44.08
2023-02-19T15:02:30.786Z,44.39
2023-02-19T15:05:04.407Z,44.42
2023-02-19T15:07:36.909Z,44.66
2023-02-19T15:10:08.838Z,45.26
2023-02-19T15:12:52.912Z,46.14
2023-02-19T15:15:28.696Z,46.42
2023-02-19T15:18:02.534Z,46.73
2023-02-19T15:20:38.185Z,47.27
2023-02-19T15:23:10.702Z,48.79
2023-02-19T15:25:42.699Z,48.66
2023-02-19T15:28:23.720Z,49.99
2023-02-19T15:30:55.133Z,50.47
2023-02-19T15:33:27.373Z,51.53
2023-02-19T15:36:03.720Z,51.81
2023-02-19T15:38:34.818Z,52.12
2023-02-19T15:41:05.803Z,51.65
2023-02-19T15:43:44.521Z,51.77
2023-02-19T15:46:21.020Z,52.73
2023-02-19T15:48:56.293Z,53.34
2023-02-19T15:51:36.579Z,54.86
2023-02-19T15:54:19.793Z,54.72
2023-02-19T15:56:53.282Z,54.74
2023-02-19T15:59:31.848Z,55.84
2023-02-19T16:02:04.501Z,57.26
2023-02-19T16:04:38.558Z,56.74
2023-02-19T16:07:32.143Z,57.47
2023-02-19T16:10:23.747Z,57.66
2023-02-19T16:13:01.752Z,57.51
2023-02-19T16:15:34.988Z,57.69
2023-02-19T16:18:05.679Z,58.08
2023-02-19T16:20:38.497Z,57.42
2023-02-19T16:23:16.519Z,56.61
2023-02-19T16:25:47.911Z,56.05
2023-02-19T16:28:25.835Z,55.49
2023-02-19T16:31:00.070Z,54.58
2023-02-19T16:33:39.804Z,55.07
2023-02-19T16:36:29.015Z,54.70
2023-02-19T16:39:24.326Z,54.23
2023-02-19T16:42:15.466Z,53.89
2023-02-19T16:44:52.465Z,53.77
2023-02-19T16:47:37.378Z,53.23
2023-02-19T16:50:16.011Z,53.06
2023-02-19T16:52:57.323Z,50.47
2023-02-19T16:55:32.522Z,50.43
2023-02-19T16:58:03.310Z,55.09
2023-02-19T17:00:35.266Z,56.50
2023-02-19T17:03:10.002Z,56.27
2023-02-19T17:05:42.039Z,56.15
2023-02-19T17:08:35.246Z,56.40
2023-02-19T17:11:10.230Z,56.27
2023-02-19T17:13:41.153Z,56.05
2023-02-19T17:16:15.056Z,56.16
2023-02-19T17:18:45.614Z,55.91
2023-02-19T17:21:18.521Z,56.09
2023-02-19T17:23:49.309Z,56.10
2023-02-19T17:26:25.838Z,55.91
2023-02-19T17:28:56.812Z,55.60
2023-02-19T17:31:27.828Z,55.27
2023-02-19T17:33:59.110Z,54.60
2023-02-19T17:36:31.807Z,54.89
2023-02-19T17:39:03.449Z,55.21
2023-02-19T17:41:36.720Z,55.08
2023-02-19T17:44:07.312Z,56.29
2023-02-19T17:46:37.981Z,55.99
2023-02-19T17:49:09.002Z,56.59
2023-02-19T17:51:39.673Z,57.02
2023-02-19T17:54:10.303Z,57.49
2023-02-19T17:56:46.218Z,58.11
2023-02-19T17:59:18.356Z,59.08
2023-02-19T18:01:49.125Z,59.12
2023-02-19T18:04:19.750Z,60.03
2023-02-19T18:06:50.922Z,60.10
2023-02-19T18:09:22.612Z,60.84
2023-02-19T18:11:55.834Z,60.82
2023-02-19T18:14:26.626Z,61.43
2023-02-19T18:16:57.262Z,63.38
2023-02-19T18:19:27.785Z,62.38
2023-02-19T18:21:58.479Z,61.61
2023-02-19T18:24:29.106Z,61.66
2023-02-19T18:27:02.303Z,60.10
2023-02-19T18:29:35.079Z,59.37
2023-02-19T18:32:05.850Z,60.55
2023-02-19T18:34:36.465Z,60.04
2023-02-19T18:37:07.124Z,59.77
2023-02-19T18:39:37.711Z,60.51
2023-02-19T18:42:11.049Z,60.79
2023-02-19T18:44:42.322Z,60.68
2023-02-19T18:47:13.418Z,60.21
2023-02-19T18:49:47.736Z,59.93
2023-02-19T18:52:20.570Z,60.81
2023-02-19T18:54:52.070Z,61.00
2023-02-19T18:57:27.104Z,61.20
2023-02-19T18:59:57.718Z,61.13
2023-02-19T19:02:36.355Z,60.78
2023-02-19T19:05:07.200Z,63.90
2023-02-19T19:07:41.376Z,62.25
2023-02-19T19:10:19.445Z,62.67
2023-02-19T19:13:00.757Z,62.43
2023-02-19T19:15:33.044Z,62.51
2023-02-19T19:18:03.700Z,61.90
2023-02-19T19:20:34.295Z,61.04
2023-02-19T19:23:05.292Z,60.72
2023-02-19T19:25:35.838Z,64.20
2023-02-19T19:28:09.110Z,62.88
2023-02-19T19:30:39.812Z,62.89
2023-02-19T19:33:12.155Z,62.50
2023-02-19T19:35:44.813Z,62.37
2023-02-19T19:38:16.423Z,61.69
2023-02-19T19:40:47.126Z,60.93
2023-02-19T19:43:20.514Z,60.83
2023-02-19T19:45:51.264Z,62.32
2023-02-19T19:48:22.183Z,62.30
2023-02-19T19:50:52.913Z,62.64
2023-02-19T19:53:23.980Z,62.23
2023-02-19T19:55:55.472Z,61.93
2023-02-19T19:58:28.969Z,62.71
2023-02-19T20:01:01.913Z,63.27
2023-02-19T20:03:33.755Z,63.72
2023-02-19T20:06:04.676Z,63.35
2023-02-19T20:08:35.357Z,64.06
2023-02-19T20:11:06.470Z,64.86
2023-02-19T20:13:39.756Z,64.50
2023-02-19T20:16:12.650Z,64.46
2023-02-19T20:18:43.553Z,66.95
2023-02-19T20:21:14.746Z,66.84
2023-02-19T20:23:45.513Z,66.83
2023-02-19T20:26:16.091Z,67.91
2023-02-19T20:28:49.304Z,67.76
2023-02-19T20:31:20.868Z,71.64
2023-02-19T20:33:51.839Z,71.05
2023-02-19T20:36:22.904Z,70.87
2023-02-19T20:38:53.876Z,70.65
2023-02-19T20:41:24.924Z,69.71
2023-02-19T20:43:58.169Z,68.19
2023-02-19T20:46:30.076Z,71.45
2023-02-19T20:49:00.814Z,70.26
2023-02-19T20:51:31.475Z,70.65
2023-02-19T20:54:02.018Z,70.06
2023-02-19T20:56:32.805Z,69.16
2023-02-19T20:59:06.020Z,66.97
2023-02-19T21:01:36.663Z,66.30
2023-02-19T21:04:07.365Z,67.55
2023-02-19T21:06:38.477Z,70.43
2023-02-19T21:09:09.457Z,73.57
2023-02-19T21:11:40.164Z,75.45
2023-02-19T21:14:13.602Z,78.97
2023-02-19T21:16:44.537Z,80.39
2023-02-19T21:19:15.224Z,81.64
2023-02-19T21:21:45.995Z,83.27
2023-02-19T21:24:18.782Z,83.01
2023-02-19T21:26:49.473Z,83.16
2023-02-19T21:29:25.590Z,83.56
2023-02-19T21:31:58.998Z,83.57
2023-02-19T21:34:31.415Z,82.27
2023-02-19T21:37:02.159Z,81.33
2023-02-19T21:39:33.812Z,80.68
2023-02-19T21:42:04.400Z,80.27
2023-02-19T21:44:37.563Z,83.05
2023-02-19T21:47:08.370Z,85.11
2023-02-19T21:49:38.955Z,86.08
2023-02-19T21:52:09.674Z,85.90
2023-02-19T21:54:40.249Z,86.48
2023-02-19T21:57:11.345Z,85.39
2023-02-19T21:59:44.537Z,84.13
2023-02-19T22:02:15.316Z,82.23
2023-02-19T22:04:45.980Z,80.45
2023-02-19T22:07:16.557Z,82.73
2023-02-19T22:09:47.384Z,80.11
2023-02-19T22:12:18.155Z,78.24
2023-02-19T22:14:51.990Z,76.68
2023-02-19T22:17:22.949Z,74.99
2023-02-19T22:19:53.459Z,73.87
2023-02-19T22:22:24.151Z,71.87
2023-02-19T22:24:54.697Z,71.25
2023-02-19T22:27:25.529Z,69.92
2023-02-19T22:29:58.642Z,69.36
2023-02-19T22:32:29.545Z,68.18
2023-02-19T22:35:01.068Z,68.39
2023-02-19T22:37:34.246Z,67.67
2023-02-19T22:40:05.246Z,67.26
2023-02-19T22:42:36.260Z,66.83
2023-02-19T22:45:10.551Z,66.39
2023-02-19T22:47:42.486Z,65.86
2023-02-19T22:50:20.160Z,64.87
2023-02-19T22:52:54.637Z,64.86
2023-02-19T22:55:25.496Z,64.79
2023-02-19T22:57:56.668Z,64.27
2023-02-19T23:00:30.227Z,64.24
2023-02-19T23:03:01.128Z,63.49
2023-02-19T23:05:32.696Z,63.75
2023-02-19T23:08:03.375Z,62.53
2023-02-19T23:10:33.991Z,62.04
2023-02-19T23:13:04.544Z,61.69
2023-02-19T23:15:37.841Z,61.49
2023-02-19T23:18:08.796Z,60.58
2023-02-19T23:20:39.658Z,60.14
2023-02-19T23:23:10.297Z,60.45
2023-02-19T23:25:40.823Z,59.81
2023-02-19T23:28:11.407Z,59.14
2023-02-19T23:30:44.660Z,59.80
2023-02-19T23:33:15.212Z,58.39
2023-02-19T23:35:45.837Z,59.26
2023-02-19T23:38:16.350Z,57.50
2023-02-19T23:40:46.876Z,58.70
2023-02-19T23:43:17.468Z,57.05
2023-02-19T23:45:50.761Z,58.26
2023-02-19T23:48:21.468Z,57.07
2023-02-19T23:50:51.966Z,57.29
2023-02-19T23:53:22.662Z,56.79
2023-02-19T23:55:53.627Z,57.40
2023-02-19T23:58:24.212Z,56.01
